Date,TemperatureHighF,TemperatureAvgF,TemperatureLowF,DewpointHighF,DewpointAvgF,DewpointLowF,HumidityHigh,HumidityAvg,HumidityLow,PressureMaxIn,PressureMinIn,WindSpeedMaxMPH,WindSpeedAvgMPH,GustSpeedMaxMPH,PrecipitationSumIn
2013-5-1,86.9,72.3,55.2,30.0,21.0,11.8,22,15,11,29.20,29.03,7,1,11,0.00
2013-5-2,82.9,70.0,58.3,28.8,21.9,15.0,22,16,13,29.20,29.09,8,2,12,0.00
2013-5-3,82.2,69.9,59.5,28.5,22.7,17.3,22,17,14,29.09,28.97,8,4,13,0.00
2013-5-4,73.2,64.3,57.6,24.4,18.6,13.4,22,17,16,29.03,28.94,8,4,13,0.00
2013-5-5,70.2,61.0,54.5,23.3,18.5,11.8,26,19,17,29.00,28.94,8,3,13,0.00
2013-5-6,71.8,63.0,55.0,24.2,18.2,11.2,20,18,16,29.00,28.91,10,4,17,0.00
2013-5-7,76.6,66.3,56.1,25.8,22.1,15.2,27,19,15,29.03,28.97,9,2,14,0.00
2013-5-8,81.5,66.5,51.8,36.7,24.0,16.3,51,21,14,29.03,28.97,9,1,13,0.00
2013-5-9,84.5,66.1,54.5,28.9,22.7,15.2,26,20,13,29.03,28.91,12,1,15,0.00
2013-5-10,70.6,62.4,49.2,40.9,26.8,17.0,46,27,17,28.91,28.82,8,4,15,0.00
2013-5-11,63.3,49.3,41.2,34.2,15.7,4.9,62,27,16,29.00,28.82,10,4,16,0.00
2013-5-12,55.2,45.2,35.8,12.3,8.0,2.0,32,22,18,29.12,28.97,10,4,17,0.00
2013-5-13,63.8,50.6,34.4,16.7,9.2,-0.2,25,19,16,29.15,29.06,8,2,13,0.00
2013-5-14,73.6,72.7,72.5,24.6,23.9,23.7,16,16,16,28.82,28.79,3,3,8,0.00
2013-5-15,85.8,76.2,70.7,29.7,25.4,23.0,17,15,13,28.88,28.82,10,4,17,0.00
2013-5-16,84.6,72.3,59.7,29.8,25.7,18.6,30,18,13,29.00,28.82,5,0,8,0.00
2013-5-17,84.1,66.5,56.3,39.7,27.9,18.7,41,25,13,29.09,29.00,7,1,11,0.00
2013-5-18,79.5,67.7,57.9,35.6,24.9,16.1,36,21,15,29.09,29.00,5,1,10,0.00
2013-5-19,87.6,75.4,58.8,31.5,26.7,18.7,27,17,13,29.03,28.91,5,1,8,0.00
2013-5-20,88.2,79.4,69.6,40.3,30.6,23.0,33,18,13,28.97,28.91,7,3,15,0.00
2013-5-21,86.5,84.7,70.9,29.8,29.0,23.0,17,13,13,28.91,28.79,5,4,8,0.00
2013-5-22,79.2,70.7,61.9,31.0,25.7,20.2,27,19,15,28.82,28.73,14,3,21,0.04
2013-5-23,67.1,59.2,50.4,34.7,24.1,15.2,38,26,17,29.18,28.82,9,4,17,0.04
2013-5-24,71.9,55.5,42.2,21.6,15.0,7.3,42,21,14,29.35,29.15,7,2,12,0.00
2013-5-25,70.0,56.4,41.2,23.1,13.1,4.1,26,18,15,29.35,29.24,3,0,7,0.00
2013-5-26,75.7,62.2,44.1,25.7,17.3,5.5,22,18,15,29.29,29.18,6,1,8,0.00
2013-5-27,71.2,62.0,51.8,42.1,25.2,14.1,44,26,16,29.20,28.91,8,3,15,1.38
2013-5-28,83.1,72.5,62.2,49.4,33.2,22.4,59,28,11,28.97,28.88,9,3,17,0.00
2013-5-29,87.0,77.1,68.9,30.2,26.0,22.2,17,15,13,29.06,28.94,9,4,15,0.00
2013-5-30,88.8,77.4,68.4,31.6,26.8,22.0,22,16,13,29.12,29.00,9,2,17,0.08
2013-5-31,76.6,72.8,68.7,40.9,29.1,23.1,31,20,16,29.03,28.91,9,2,13,0.55